createdAt,value
2023-05-06T00:00:42.954Z,10.7
2023-05-06T00:01:43.977Z,10.8
2023-05-06T00:02:44.991Z,10.7
2023-05-06T00:03:46.053Z,10.8
2023-05-06T00:04:47.011Z,10.7
2023-05-06T00:05:47.919Z,10.7
2023-05-06T00:06:48.897Z,10.7
2023-05-06T00:07:49.900Z,10.7
2023-05-06T00:08:50.918Z,10.7
2023-05-06T00:09:52.100Z,10.7
2023-05-06T00:10:52.901Z,10.5
2023-05-06T00:11:53.999Z,10.4
2023-05-06T00:12:54.872Z,10.3
2023-05-06T00:13:55.917Z,10.4
2023-05-06T00:14:56.890Z,10.4
2023-05-06T00:15:57.894Z,10.5
2023-05-06T00:16:58.935Z,10.5
2023-05-06T00:17:59.982Z,10.5
2023-05-06T00:19:00.991Z,10.4
2023-05-06T00:20:01.937Z,10.4
2023-05-06T00:21:02.917Z,10.3
2023-05-06T00:22:03.897Z,10.3
2023-05-06T00:23:04.937Z,10.4
2023-05-06T00:24:06.284Z,10.4
2023-05-06T00:25:08.169Z,10.5
2023-05-06T00:26:08.915Z,10.5
2023-05-06T00:27:09.902Z,10.6
2023-05-06T00:28:10.883Z,10.5
2023-05-06T00:29:11.917Z,10.5
2023-05-06T00:30:12.947Z,10.6
2023-05-06T00:31:13.901Z,10.5
2023-05-06T00:32:14.967Z,10.5
2023-05-06T00:33:15.933Z,10.6
2023-05-06T00:34:16.897Z,10.6
2023-05-06T00:35:17.925Z,10.7
2023-05-06T00:36:18.875Z,10.8
2023-05-06T00:37:19.916Z,10.8
2023-05-06T00:38:20.939Z,10.8
2023-05-06T00:39:21.898Z,10.9
2023-05-06T00:40:23.066Z,11
2023-05-06T00:41:23.922Z,11
2023-05-06T00:42:24.916Z,11
2023-05-06T00:43:25.920Z,11
2023-05-06T00:44:26.919Z,10.9
2023-05-06T00:45:27.901Z,10.8
2023-05-06T00:46:28.980Z,10.7
2023-05-06T00:47:29.957Z,10.6
2023-05-06T00:48:30.920Z,10.6
2023-05-06T00:49:31.904Z,10.7
2023-05-06T00:50:32.904Z,10.7
2023-05-06T00:51:33.942Z,10.7
2023-05-06T00:52:34.923Z,10.8
2023-05-06T00:53:35.897Z,10.8
2023-05-06T00:54:36.924Z,10.7
2023-05-06T00:55:38.092Z,10.7
2023-05-06T00:56:39.504Z,10.7
2023-05-06T00:57:40.926Z,10.8
2023-05-06T00:58:42.037Z,10.8
2023-05-06T00:59:42.905Z,10.6
2023-05-06T01:00:44.015Z,10.6
2023-05-06T01:01:44.942Z,10.7
2023-05-06T01:02:47.292Z,10.7
2023-05-06T01:03:47.042Z,10.6
2023-05-06T01:04:47.922Z,10.5
2023-05-06T01:05:49.155Z,10.5
2023-05-06T01:06:51.065Z,10.5
2023-05-06T01:07:51.940Z,10.4
2023-05-06T01:08:52.898Z,10.5
2023-05-06T01:09:53.919Z,10.5
2023-05-06T01:10:55.003Z,10.6
2023-05-06T01:11:55.923Z,10.6
2023-05-06T01:12:56.971Z,10.7
2023-05-06T01:13:57.935Z,10.7
2023-05-06T01:14:58.922Z,10.6
2023-05-06T01:15:59.948Z,10.4
2023-05-06T01:17:00.956Z,10.3
2023-05-06T01:18:02.045Z,10.3
2023-05-06T01:19:03.122Z,10.4
2023-05-06T01:20:03.916Z,10.5
2023-05-06T01:21:04.927Z,10.5
2023-05-06T01:22:05.953Z,10.4
2023-05-06T01:23:06.924Z,10.4
2023-05-06T01:24:08.004Z,10.4
2023-05-06T01:25:09.119Z,10.4
2023-05-06T01:26:09.969Z,10.4
2023-05-06T01:27:10.928Z,10.4
2023-05-06T01:28:11.980Z,10.5
2023-05-06T01:29:12.916Z,10.4
2023-05-06T01:30:13.941Z,10.5
2023-05-06T01:31:15.004Z,10.4
2023-05-06T01:32:15.963Z,10.4
2023-05-06T01:33:16.965Z,10.4
2023-05-06T01:34:17.943Z,10.5
2023-05-06T01:35:18.983Z,10.6
2023-05-06T01:36:19.910Z,10.7
2023-05-06T01:37:20.969Z,10.6
2023-05-06T01:38:22.001Z,10.6
2023-05-06T01:39:22.942Z,10.6
2023-05-06T01:40:23.904Z,10.5
2023-05-06T01:41:25.050Z,10.6
2023-05-06T01:42:25.944Z,10.5
2023-05-06T01:43:26.967Z,10.5
2023-05-06T01:44:27.945Z,10.4
2023-05-06T01:45:29.003Z,10.5
2023-05-06T01:46:30.040Z,10.5
2023-05-06T01:47:31.064Z,10.5
2023-05-06T01:48:31.971Z,10.4
2023-05-06T01:49:33.362Z,10.5
2023-05-06T01:50:33.930Z,10.4
2023-05-06T01:51:35.107Z,10.3
2023-05-06T01:52:35.922Z,10.2
2023-05-06T01:53:36.964Z,10.2
2023-05-06T01:54:38.002Z,10.3
2023-05-06T01:55:38.942Z,10.2
2023-05-06T01:56:40.011Z,10.3
2023-05-06T01:57:40.945Z,10.2
2023-05-06T01:58:41.964Z,10.2
2023-05-06T01:59:42.932Z,10.3
2023-05-06T02:00:43.942Z,10.3
2023-05-06T02:01:45.015Z,10.3
2023-05-06T02:02:46.018Z,10.2
2023-05-06T02:03:46.992Z,10.3
2023-05-06T02:04:47.962Z,10.4
2023-05-06T02:05:49.321Z,10.4
2023-05-06T02:06:51.003Z,10.6
2023-05-06T02:07:51.990Z,10.7
2023-05-06T02:08:52.925Z,10.6
2023-05-06T02:09:54.045Z,10.5
2023-05-06T02:10:54.984Z,10.5
2023-05-06T02:11:56.011Z,10.4
2023-05-06T02:12:56.978Z,10.5
2023-05-06T02:13:58.020Z,10.6
2023-05-06T02:14:58.992Z,10.7
2023-05-06T02:15:59.961Z,10.6
2023-05-06T02:17:00.971Z,10.6
2023-05-06T02:18:02.043Z,10.7
2023-05-06T02:19:02.974Z,10.7
2023-05-06T02:20:03.988Z,10.7
2023-05-06T02:21:04.961Z,10.6
2023-05-06T02:22:05.945Z,10.5
2023-05-06T02:23:07.002Z,10.4
2023-05-06T02:24:07.985Z,10.4
2023-05-06T02:25:09.203Z,10.5
2023-05-06T02:26:09.947Z,10.5
2023-05-06T02:27:11.062Z,10.4
2023-05-06T02:28:11.942Z,10.4
2023-05-06T02:29:12.925Z,10.4
2023-05-06T02:30:13.982Z,10.3
2023-05-06T02:31:15.003Z,10.3
2023-05-06T02:32:15.950Z,10.4
2023-05-06T02:33:16.982Z,10.4
2023-05-06T02:34:18.007Z,10.5
2023-05-06T02:35:18.985Z,10.6
2023-05-06T02:36:19.963Z,10.5
2023-05-06T02:37:20.982Z,10.5
2023-05-06T02:38:21.937Z,10.5
2023-05-06T02:39:22.964Z,10.5
2023-05-06T02:40:24.010Z,10.4
2023-05-06T02:41:24.935Z,10.4
2023-05-06T02:42:26.130Z,10.4
2023-05-06T02:43:26.984Z,10.5
2023-05-06T02:44:28.005Z,10.4
2023-05-06T02:45:29.000Z,10.4
2023-05-06T02:46:29.980Z,10.5
2023-05-06T02:47:31.015Z,10.4
2023-05-06T02:48:31.963Z,10.4
2023-05-06T02:49:32.981Z,10.5
2023-05-06T02:50:33.980Z,10.5
2023-05-06T02:51:34.991Z,10.6
2023-05-06T02:52:35.985Z,10.6
2023-05-06T02:53:36.983Z,10.5
2023-05-06T02:54:37.986Z,10.6
2023-05-06T02:55:38.962Z,10.7
2023-05-06T02:56:40.161Z,10.9
2023-05-06T02:57:41.043Z,10.8
2023-05-06T02:58:41.943Z,10.9
2023-05-06T02:59:42.995Z,11
2023-05-06T03:00:44.253Z,11.3
2023-05-06T03:01:45.040Z,11.4
2023-05-06T03:02:46.015Z,11.6
2023-05-06T03:03:46.933Z,11.6
2023-05-06T03:04:47.999Z,11.7
2023-05-06T03:05:49.008Z,11.7
2023-05-06T03:06:50.025Z,11.6
2023-05-06T03:07:50.981Z,11.6
2023-05-06T03:08:51.981Z,11.5
2023-05-06T03:09:53.046Z,11.5
2023-05-06T03:10:54.040Z,11.4
2023-05-06T03:11:55.116Z,11.2
2023-05-06T03:12:56.164Z,11.2
2023-05-06T03:13:57.499Z,11.2
2023-05-06T03:14:58.981Z,11.2
2023-05-06T03:15:59.948Z,11.1
2023-05-06T03:17:01.054Z,11.1
2023-05-06T03:18:02.054Z,11.2
2023-05-06T03:19:03.010Z,11.3
2023-05-06T03:20:03.938Z,11.4
2023-05-06T03:21:05.058Z,11.4
2023-05-06T03:22:05.989Z,11.5
2023-05-06T03:23:07.049Z,11.6
2023-05-06T03:24:08.053Z,11.7
2023-05-06T03:25:09.231Z,11.7
2023-05-06T03:26:09.958Z,11.8
2023-05-06T03:27:10.998Z,11.8
2023-05-06T03:28:12.012Z,11.8
2023-05-06T03:29:13.001Z,12
2023-05-06T03:30:13.977Z,12
2023-05-06T03:31:15.023Z,12
2023-05-06T03:32:15.999Z,11.9
2023-05-06T03:33:17.020Z,11.9
2023-05-06T03:34:17.999Z,11.8
2023-05-06T03:35:18.997Z,11.7
2023-05-06T03:36:20.018Z,11.5
2023-05-06T03:37:21.049Z,11.4
2023-05-06T03:38:22.041Z,11.5
2023-05-06T03:39:23.481Z,11.5
2023-05-06T03:40:25.026Z,11.5
2023-05-06T03:41:26.021Z,11.6
2023-05-06T03:42:27.050Z,11.7
2023-05-06T03:43:28.005Z,11.7
2023-05-06T03:44:29.028Z,11.7
2023-05-06T03:45:30.010Z,11.7
2023-05-06T03:46:31.079Z,11.6
2023-05-06T03:47:32.099Z,11.6
2023-05-06T03:48:33.020Z,11.7
2023-05-06T03:49:33.999Z,11.6
2023-05-06T03:50:35.018Z,11.6
2023-05-06T03:51:36.660Z,11.6
2023-05-06T03:52:38.043Z,11.7
2023-05-06T03:53:39.020Z,11.8
2023-05-06T03:54:40.020Z,11.7
2023-05-06T03:55:41.082Z,11.7
2023-05-06T03:56:42.025Z,11.8
2023-05-06T03:57:42.986Z,11.8
2023-05-06T03:58:44.504Z,11.8
2023-05-06T03:59:45.043Z,11.8
2023-05-06T04:00:46.059Z,11.9
2023-05-06T04:01:47.054Z,11.9
2023-05-06T04:02:48.690Z,12
2023-05-06T04:03:50.093Z,12.1
2023-05-06T04:04:51.016Z,12.2
2023-05-06T04:05:52.017Z,12.2
2023-05-06T04:06:53.432Z,12.2
2023-05-06T04:07:55.027Z,12.2
2023-05-06T04:08:56.139Z,12.3
2023-05-06T04:09:57.037Z,12.2
2023-05-06T04:10:58.007Z,12.2
2023-05-06T04:11:59.606Z,12.3
2023-05-06T04:13:01.138Z,12.2
2023-05-06T04:14:02.154Z,12.2
2023-05-06T04:15:03.857Z,12.2
2023-05-06T04:16:05.022Z,12.2
2023-05-06T04:17:06.102Z,12.2
2023-05-06T04:18:07.009Z,12.2
2023-05-06T04:19:08.097Z,12.2
2023-05-06T04:20:09.436Z,12.1
2023-05-06T04:21:11.059Z,12.1
2023-05-06T04:22:12.014Z,12
2023-05-06T04:23:13.286Z,11.9
2023-05-06T04:24:14.078Z,11.7
2023-05-06T04:25:15.007Z,11.7
2023-05-06T04:26:16.036Z,11.7
2023-05-06T04:27:17.044Z,11.6
2023-05-06T04:28:18.040Z,11.6
2023-05-06T04:29:19.658Z,11.7
2023-05-06T04:30:21.104Z,11.7
2023-05-06T04:31:22.076Z,11.7
2023-05-06T04:32:23.047Z,11.7
2023-05-06T04:33:24.040Z,11.6
2023-05-06T04:34:25.213Z,11.6
2023-05-06T04:35:26.021Z,11.5
2023-05-06T04:36:27.052Z,11.5
2023-05-06T04:37:28.071Z,11.5
2023-05-06T04:38:29.063Z,11.4
2023-05-06T04:39:30.129Z,11.2
2023-05-06T04:40:31.103Z,11
2023-05-06T04:41:32.400Z,10.9
2023-05-06T04:42:33.063Z,10.9
2023-05-06T04:43:34.060Z,10.9
2023-05-06T04:44:35.079Z,10.8
2023-05-06T04:45:36.072Z,10.8
2023-05-06T04:46:37.053Z,10.7
2023-05-06T04:47:38.081Z,10.7
2023-05-06T04:48:39.025Z,10.6
2023-05-06T04:49:40.072Z,10.6
2023-05-06T04:50:41.100Z,10.6
2023-05-06T04:51:42.866Z,10.5
2023-05-06T04:52:44.111Z,10.5
2023-05-06T04:53:45.031Z,10.3
2023-05-06T04:54:46.060Z,10.2
2023-05-06T04:55:47.084Z,10.2
2023-05-06T04:56:48.044Z,10.2
2023-05-06T04:57:49.343Z,10.2
2023-05-06T04:58:50.043Z,10.2
2023-05-06T04:59:51.546Z,10.2
2023-05-06T05:00:53.110Z,10.3
2023-05-06T05:01:54.086Z,10.3
2023-05-06T05:02:55.086Z,9.9
2023-05-06T05:03:56.925Z,9.7
2023-05-06T05:04:58.250Z,9.6
2023-05-06T05:05:59.079Z,9.6
2023-05-06T05:07:00.342Z,9.7
2023-05-06T05:08:01.058Z,9.8
2023-05-06T05:09:02.068Z,9.9
2023-05-06T05:10:03.284Z,10
2023-05-06T05:11:04.070Z,9.9
2023-05-06T05:12:05.320Z,9.9
2023-05-06T05:13:06.149Z,10
2023-05-06T05:14:07.068Z,10
2023-05-06T05:15:08.249Z,10.1
2023-05-06T05:16:09.322Z,10.2
2023-05-06T05:17:10.097Z,10.3
2023-05-06T05:18:11.118Z,10.4
2023-05-06T05:19:12.025Z,10.3
2023-05-06T05:20:13.183Z,10.1
2023-05-06T05:21:14.226Z,10.2
2023-05-06T05:22:15.022Z,10.3
2023-05-06T05:23:16.160Z,10.5
2023-05-06T05:24:17.141Z,10.5
2023-05-06T05:25:18.201Z,10.5
2023-05-06T05:26:19.088Z,10.5
2023-05-06T05:27:20.062Z,10.6
2023-05-06T05:28:21.445Z,10.6
2023-05-06T05:29:23.987Z,10.6
2023-05-06T05:30:25.110Z,10.5
2023-05-06T05:31:26.099Z,10.4
2023-05-06T05:32:27.107Z,10.3
2023-05-06T05:33:28.101Z,10.3
2023-05-06T05:34:29.116Z,10.4
2023-05-06T05:35:30.045Z,10.6
2023-05-06T05:36:31.062Z,10.7
2023-05-06T05:37:32.154Z,10.9
2023-05-06T05:38:33.066Z,11
2023-05-06T05:39:34.083Z,11
2023-05-06T05:40:35.120Z,11.1
2023-05-06T05:41:36.049Z,11.2
2023-05-06T05:42:37.122Z,11.2
2023-05-06T05:43:38.121Z,11.3
2023-05-06T05:44:39.081Z,11.4
2023-05-06T05:45:40.187Z,11.4
2023-05-06T05:46:41.122Z,11.4
2023-05-06T05:47:42.122Z,11.5
2023-05-06T05:48:43.141Z,11.5
2023-05-06T05:49:44.063Z,11.6
2023-05-06T05:50:45.083Z,11.6
2023-05-06T05:51:46.061Z,11.7
2023-05-06T05:52:47.023Z,11.7
2023-05-06T05:53:48.101Z,11.7
2023-05-06T05:54:49.134Z,11.7
2023-05-06T05:55:50.106Z,11.7
2023-05-06T05:56:51.084Z,11.8
2023-05-06T05:57:52.079Z,11.7
2023-05-06T05:58:53.161Z,11.8
2023-05-06T05:59:54.140Z,11.8
2023-05-06T06:00:55.190Z,11.9
2023-05-06T06:01:56.087Z,11.9
2023-05-06T06:02:57.144Z,11.9
2023-05-06T06:03:58.347Z,12
2023-05-06T06:04:59.115Z,12
2023-05-06T06:06:00.144Z,12
2023-05-06T06:07:01.084Z,12.1
2023-05-06T06:08:03.723Z,12.1
2023-05-06T06:09:03.189Z,12.2
2023-05-06T06:10:04.109Z,12.2
2023-05-06T06:11:05.105Z,12.2
2023-05-06T06:12:06.109Z,12.2
2023-05-06T06:13:07.253Z,12.2
2023-05-06T06:14:08.124Z,12.3
2023-05-06T06:15:09.243Z,12.2
2023-05-06T06:16:10.201Z,12.3
2023-05-06T06:17:11.119Z,12.2
2023-05-06T06:18:12.097Z,12.2
2023-05-06T06:19:13.286Z,12.2
2023-05-06T06:20:14.087Z,12.2
2023-05-06T06:21:15.077Z,12.2
2023-05-06T06:22:16.057Z,12.1
2023-05-06T06:23:17.080Z,12.1
2023-05-06T06:24:18.117Z,12.1
2023-05-06T06:25:19.139Z,12.1
2023-05-06T06:26:20.098Z,12.1
2023-05-06T06:27:21.098Z,12.1
2023-05-06T06:28:22.100Z,12.1
2023-05-06T06:29:23.147Z,12
2023-05-06T06:30:24.097Z,12
2023-05-06T06:31:25.267Z,11.9
2023-05-06T06:32:26.434Z,11.8
2023-05-06T06:33:27.125Z,11.7
2023-05-06T06:34:28.119Z,11.7
2023-05-06T06:35:29.097Z,11.6
2023-05-06T06:36:30.081Z,11.6
2023-05-06T06:37:31.140Z,11.6
2023-05-06T06:38:32.102Z,11.5
2023-05-06T06:39:33.118Z,11.5
2023-05-06T06:40:34.113Z,11.5
2023-05-06T06:41:35.079Z,11.5
2023-05-06T06:42:36.148Z,11.6
2023-05-06T06:43:37.078Z,11.6
2023-05-06T06:44:38.329Z,11.4
2023-05-06T06:45:39.115Z,11.2
2023-05-06T06:46:40.222Z,10.7
2023-05-06T06:47:41.740Z,10.6
2023-05-06T06:48:43.161Z,10.7
2023-05-06T06:49:44.116Z,10.8
2023-05-06T06:50:45.082Z,10.9
2023-05-06T06:51:46.142Z,11
2023-05-06T06:52:47.111Z,11.1
2023-05-06T06:53:48.102Z,11.2
2023-05-06T06:54:49.064Z,11.3
2023-05-06T06:55:50.161Z,11.3
2023-05-06T06:56:51.416Z,11.4
2023-05-06T06:57:52.122Z,11.4
2023-05-06T06:58:53.467Z,11.4
2023-05-06T06:59:54.094Z,11.5
2023-05-06T07:00:55.156Z,11.5
2023-05-06T07:01:56.258Z,11.5
2023-05-06T07:02:57.115Z,11.5
2023-05-06T07:03:58.609Z,11.5
2023-05-06T07:05:00.197Z,11.5
2023-05-06T07:06:01.103Z,11.5
2023-05-06T07:07:02.490Z,11.5
2023-05-06T07:08:04.090Z,11.5
2023-05-06T07:09:05.162Z,11.5
2023-05-06T07:10:06.221Z,11.5
2023-05-06T07:11:08.119Z,11.4
2023-05-06T07:12:09.198Z,11.5
2023-05-06T07:13:10.391Z,11.4
2023-05-06T07:14:11.077Z,11.5
2023-05-06T07:15:12.421Z,11.5
2023-05-06T07:16:14.290Z,11.5
2023-05-06T07:17:15.539Z,11.5
2023-05-06T07:18:16.170Z,11.5
2023-05-06T07:19:17.121Z,11.5
2023-05-06T07:20:18.260Z,11.5
2023-05-06T07:21:19.158Z,11.5
2023-05-06T07:22:20.323Z,11.5
2023-05-06T07:23:21.121Z,11.5
2023-05-06T07:24:22.109Z,11.5
2023-05-06T07:25:23.132Z,11.5
2023-05-06T07:26:24.100Z,11.5
2023-05-06T07:27:25.174Z,11.5
2023-05-06T07:28:26.119Z,11.5
2023-05-06T07:29:27.109Z,11.5
2023-05-06T07:30:28.197Z,11.5
2023-05-06T07:31:29.204Z,11.5
2023-05-06T07:32:30.252Z,11.5
2023-05-06T07:33:32.362Z,11.5
2023-05-06T07:34:33.123Z,11.3
2023-05-06T07:35:34.867Z,11.2
2023-05-06T07:36:38.655Z,11.2
2023-05-06T07:37:38.219Z,11.2
2023-05-06T07:38:39.138Z,11.2
2023-05-06T07:39:40.082Z,11.1
2023-05-06T07:40:41.198Z,11.1
2023-05-06T07:41:42.102Z,11.1
2023-05-06T07:42:43.393Z,11.1
2023-05-06T07:43:44.164Z,11
2023-05-06T07:44:45.358Z,10.9
2023-05-06T07:45:46.281Z,10.9
2023-05-06T07:46:47.173Z,10.8
2023-05-06T07:47:48.357Z,10.7
2023-05-06T07:48:49.235Z,10.6
2023-05-06T07:49:50.123Z,10.6
2023-05-06T07:50:51.267Z,10.5
2023-05-06T07:51:53.104Z,10.5
2023-05-06T07:52:54.157Z,10.5
2023-05-06T07:53:55.355Z,10.4
2023-05-06T07:54:56.131Z,10.4
2023-05-06T07:55:57.131Z,10.4
2023-05-06T07:56:59.590Z,10.3
2023-05-06T07:58:01.168Z,10.3
2023-05-06T07:59:03.139Z,10.4
2023-05-06T08:00:04.419Z,10.4
2023-05-06T08:01:05.159Z,10.5
2023-05-06T08:02:06.228Z,10.5
2023-05-06T08:03:07.374Z,10.5
2023-05-06T08:04:08.203Z,10.4
2023-05-06T08:05:09.433Z,10.4
2023-05-06T08:06:10.218Z,10.3
2023-05-06T08:07:11.399Z,10.3
2023-05-06T08:08:12.107Z,10.4
2023-05-06T08:09:19.908Z,10.4
2023-05-06T08:10:14.165Z,10.4
2023-05-06T08:11:15.585Z,10.4
2023-05-06T08:12:16.161Z,10.4
2023-05-06T08:13:17.157Z,10.4
2023-05-06T08:14:18.580Z,10.5
2023-05-06T08:15:19.404Z,10.6
2023-05-06T08:16:20.251Z,10.7
2023-05-06T08:17:21.103Z,10.5
2023-05-06T08:18:23.290Z,10.5
2023-05-06T08:19:23.153Z,10.5
2023-05-06T08:20:24.202Z,10.5
2023-05-06T08:21:25.317Z,10.4
2023-05-06T08:22:26.234Z,10.4
2023-05-06T08:23:27.154Z,10.5
2023-05-06T08:24:28.170Z,10.6
2023-05-06T08:25:29.173Z,10.6
2023-05-06T08:26:30.171Z,10.7
2023-05-06T08:27:31.137Z,10.8
2023-05-06T08:28:32.501Z,10.8
2023-05-06T08:29:34.201Z,10.8
2023-05-06T08:30:35.183Z,10.9
2023-05-06T08:31:36.637Z,11
2023-05-06T08:32:38.119Z,11
2023-05-06T08:33:39.148Z,11.1
2023-05-06T08:34:40.137Z,11.1
2023-05-06T08:35:41.201Z,11.1
2023-05-06T08:36:42.163Z,11.1
2023-05-06T08:37:43.153Z,11.1
2023-05-06T08:38:44.446Z,11.2
2023-05-06T08:39:46.144Z,11.3
2023-05-06T08:40:47.127Z,11.2
2023-05-06T08:41:48.167Z,11.1
2023-05-06T08:42:49.129Z,11.1
2023-05-06T08:43:50.243Z,11.1
2023-05-06T08:44:54.382Z,11.1
2023-05-06T08:45:55.194Z,11.1
2023-05-06T08:46:56.162Z,11.1
2023-05-06T08:47:57.213Z,11
2023-05-06T08:48:58.237Z,11.1
2023-05-06T08:49:59.140Z,11.1
2023-05-06T08:51:00.462Z,11.1
2023-05-06T08:52:01.182Z,11.1
2023-05-06T08:53:02.201Z,11
2023-05-06T08:54:03.168Z,11
2023-05-06T08:55:04.145Z,11
2023-05-06T08:56:05.167Z,10.8
2023-05-06T08:57:06.167Z,10.7
2023-05-06T08:58:07.319Z,10.4
2023-05-06T08:59:09.165Z,10.3
2023-05-06T09:00:10.210Z,10
2023-05-06T09:01:11.234Z,9.8
2023-05-06T09:02:12.487Z,9.7
2023-05-06T09:03:13.233Z,9.7
2023-05-06T09:04:14.184Z,9.7
2023-05-06T09:05:15.162Z,9.7
2023-05-06T09:06:16.147Z,9.7
2023-05-06T09:07:17.293Z,9.7
2023-05-06T09:08:19.188Z,9.6
2023-05-06T09:09:20.209Z,9.5
2023-05-06T09:10:21.202Z,9.5
2023-05-06T09:11:22.181Z,9.4
2023-05-06T09:13:59.183Z,9.7
2023-05-06T09:15:05.245Z,9.8
2023-05-06T09:16:06.967Z,9.9
2023-05-06T09:17:08.282Z,10
2023-05-06T09:18:09.209Z,9.8
2023-05-06T09:19:10.192Z,9.7
2023-05-06T09:20:11.212Z,9.8
2023-05-06T09:21:12.166Z,10
2023-05-06T09:22:13.210Z,10.2
2023-05-06T09:23:14.193Z,10.4
2023-05-06T09:24:15.301Z,10.5
2023-05-06T09:25:16.175Z,10.6
2023-05-06T09:26:17.204Z,10.6
2023-05-06T09:27:18.269Z,10.6
2023-05-06T09:28:19.218Z,10.7
2023-05-06T09:29:20.427Z,10.7
2023-05-06T09:30:21.730Z,10.8
2023-05-06T09:31:23.213Z,10.9
2023-05-06T09:32:24.209Z,10.9
2023-05-06T09:33:25.231Z,11
2023-05-06T09:34:26.568Z,11
2023-05-06T09:35:27.340Z,11
2023-05-06T09:36:28.172Z,11.1
2023-05-06T09:37:29.213Z,11.1
2023-05-06T09:38:30.374Z,10.9
2023-05-06T09:39:31.268Z,10.8
2023-05-06T09:40:32.175Z,10.7
2023-05-06T09:41:33.212Z,10.6
2023-05-06T09:42:34.205Z,10.6
2023-05-06T09:43:35.257Z,10.7
2023-05-06T09:44:36.665Z,10.7
2023-05-06T09:45:38.232Z,10.6
2023-05-06T09:46:39.287Z,10.5
2023-05-06T09:47:40.237Z,10.4
2023-05-06T09:48:41.247Z,10.5
2023-05-06T09:49:42.378Z,10.4
2023-05-06T09:50:43.443Z,10.3
2023-05-06T09:51:44.176Z,10.2
2023-05-06T09:52:45.306Z,10
2023-05-06T09:53:46.191Z,9.9
2023-05-06T09:54:47.188Z,9.8
2023-05-06T09:55:48.186Z,9.8
2023-05-06T09:56:49.227Z,9.8
2023-05-06T09:57:50.248Z,9.7
2023-05-06T09:58:51.211Z,9.7
2023-05-06T09:59:52.320Z,9.6
2023-05-06T10:00:53.178Z,9.5
2023-05-06T10:01:54.289Z,9.5
2023-05-06T10:02:55.376Z,9.5
2023-05-06T10:03:56.461Z,9.5
2023-05-06T10:04:57.530Z,9.3
2023-05-06T10:05:58.286Z,9.1
2023-05-06T10:06:59.206Z,9.1
2023-05-06T10:08:00.206Z,9.2
2023-05-06T10:09:01.201Z,9.2
2023-05-06T10:10:02.231Z,9.3
2023-05-06T10:11:03.182Z,9.3
2023-05-06T10:12:04.450Z,9.3
2023-05-06T10:13:05.376Z,9.4
2023-05-06T10:14:06.270Z,9.6
2023-05-06T10:15:07.305Z,9.8
2023-05-06T10:16:08.292Z,9.8
2023-05-06T10:17:09.248Z,10
2023-05-06T10:18:10.345Z,10.2
2023-05-06T10:19:11.230Z,10.2
2023-05-06T10:20:12.208Z,10.5
2023-05-06T10:21:13.348Z,10.7
2023-05-06T10:22:14.215Z,10.8
2023-05-06T10:23:15.226Z,10.9
2023-05-06T10:24:16.258Z,11
2023-05-06T10:25:17.407Z,11.1
2023-05-06T10:26:18.278Z,11.2
2023-05-06T10:27:19.228Z,11.2
2023-05-06T10:28:23.187Z,11.3
2023-05-06T10:29:21.585Z,11.4
2023-05-06T10:30:23.262Z,11.4
2023-05-06T10:31:24.205Z,11.3
2023-05-06T10:32:25.266Z,11.3
2023-05-06T10:33:26.211Z,11.2
2023-05-06T10:34:27.225Z,11.2
2023-05-06T10:35:28.228Z,11.1
2023-05-06T10:36:29.264Z,11
2023-05-06T10:37:30.242Z,11.1
2023-05-06T10:38:31.284Z,11.2
2023-05-06T10:39:32.220Z,11.3
2023-05-06T10:40:36.428Z,11.4
2023-05-06T10:41:38.239Z,11.5
2023-05-06T10:42:39.203Z,11.6
2023-05-06T10:43:40.279Z,11.7
2023-05-06T10:44:41.223Z,11.8
2023-05-06T10:45:42.248Z,11.9
2023-05-06T10:46:43.793Z,12
2023-05-06T10:47:45.380Z,12.1
2023-05-06T10:48:46.187Z,12.1
2023-05-06T10:49:47.202Z,12.1
2023-05-06T10:50:48.258Z,12.2
2023-05-06T10:51:49.390Z,12.2
2023-05-06T10:52:50.238Z,12.2
2023-05-06T10:53:51.218Z,12.2
2023-05-06T10:54:52.255Z,12.2
2023-05-06T10:55:53.219Z,12.1
2023-05-06T10:56:54.362Z,12
2023-05-06T10:57:55.205Z,11.9
2023-05-06T10:58:56.271Z,11.7
2023-05-06T10:59:57.250Z,11.7
2023-05-06T11:00:58.365Z,11.8
2023-05-06T11:01:59.259Z,11.8
2023-05-06T11:03:00.236Z,11.9
2023-05-06T11:04:01.448Z,12
2023-05-06T11:05:02.278Z,12.1
2023-05-06T11:06:03.220Z,12.1
2023-05-06T11:07:04.308Z,12
2023-05-06T11:08:05.239Z,12
2023-05-06T11:09:06.202Z,12.1
2023-05-06T11:10:07.222Z,12
2023-05-06T11:11:08.303Z,12
2023-05-06T11:12:09.303Z,12
2023-05-06T11:13:10.255Z,12
2023-05-06T11:14:11.218Z,11.8
2023-05-06T11:15:12.256Z,11.9
2023-05-06T11:16:13.278Z,11.9
2023-05-06T11:17:14.296Z,12
2023-05-06T11:18:15.220Z,12
2023-05-06T11:19:16.246Z,12.1
2023-05-06T11:20:17.300Z,12.1
2023-05-06T11:21:18.246Z,12
2023-05-06T11:22:19.307Z,11.9
2023-05-06T11:23:20.265Z,11.6
2023-05-06T11:24:21.222Z,11.5
2023-05-06T11:25:22.262Z,11.6
2023-05-06T11:26:23.196Z,11.6
2023-05-06T11:27:24.399Z,11.7
2023-05-06T11:28:25.261Z,11.6
2023-05-06T11:29:26.259Z,11.7
2023-05-06T11:30:27.281Z,11.7
2023-05-06T11:31:28.882Z,11.8
2023-05-06T11:32:30.720Z,12
2023-05-06T11:33:32.278Z,12.1
2023-05-06T11:34:33.220Z,12.2
2023-05-06T11:35:34.240Z,12.3
2023-05-06T11:36:35.860Z,12.4
2023-05-06T11:37:37.492Z,12.5
2023-05-06T11:38:39.260Z,12.6
2023-05-06T11:39:41.133Z,12.7
2023-05-06T11:40:41.347Z,12.8
2023-05-06T11:41:42.279Z,12.9
2023-05-06T11:42:43.291Z,12.9
2023-05-06T11:43:44.228Z,12.8
2023-05-06T11:44:45.499Z,12.7
2023-05-06T11:45:47.244Z,12.8
2023-05-06T11:46:48.365Z,12.8
2023-05-06T11:47:49.290Z,12.9
2023-05-06T11:48:50.366Z,13
2023-05-06T11:49:51.304Z,12.9
2023-05-06T11:50:52.234Z,12.8
2023-05-06T11:51:53.261Z,12.7
2023-05-06T11:52:54.313Z,12.6
2023-05-06T11:53:55.280Z,12.3
2023-05-06T11:54:56.261Z,12.1
2023-05-06T11:55:57.362Z,12
2023-05-06T11:56:58.400Z,12
2023-05-06T11:57:59.280Z,12
2023-05-06T11:59:00.300Z,12
2023-05-06T12:00:01.242Z,12
2023-05-06T12:01:02.222Z,12
2023-05-06T12:02:03.343Z,12
2023-05-06T12:03:04.327Z,12.1
2023-05-06T12:04:05.619Z,12.2
2023-05-06T12:05:06.262Z,12.2
2023-05-06T12:06:07.361Z,12.4
2023-05-06T12:07:08.330Z,12.3
2023-05-06T12:08:19.947Z,12.3
2023-05-06T12:09:10.359Z,12.4
2023-05-06T12:10:11.470Z,12.4
2023-05-06T12:11:12.256Z,12.4
2023-05-06T12:12:13.217Z,12.5
2023-05-06T12:13:14.311Z,12.4
2023-05-06T12:14:15.269Z,12.3
2023-05-06T12:15:16.560Z,12.1
2023-05-06T12:16:18.306Z,12.1
2023-05-06T12:17:19.299Z,12.1
2023-05-06T12:18:20.319Z,12.2
2023-05-06T12:19:21.259Z,12.2
2023-05-06T12:20:22.302Z,12.3
2023-05-06T12:21:23.597Z,12.4
2023-05-06T12:22:24.244Z,12.4
2023-05-06T12:23:25.464Z,12.4
2023-05-06T12:24:26.268Z,12.3
2023-05-06T12:25:27.269Z,12.4
2023-05-06T12:26:28.278Z,12.4
2023-05-06T12:27:29.253Z,12.5
2023-05-06T12:28:30.345Z,12.4
2023-05-06T12:29:31.260Z,12.5
2023-05-06T12:30:32.506Z,12.6
2023-05-06T12:31:34.339Z,12.6
2023-05-06T12:32:35.281Z,12.7
2023-05-06T12:33:36.338Z,12.7
2023-05-06T12:34:37.584Z,12.6
2023-05-06T12:35:38.347Z,12.6
2023-05-06T12:36:39.303Z,12.7
2023-05-06T12:37:40.402Z,12.5
2023-05-06T12:38:41.428Z,12.6
2023-05-06T12:39:42.255Z,12.6
2023-05-06T12:40:43.296Z,12.7
2023-05-06T12:41:44.272Z,12.7
2023-05-06T12:42:45.563Z,12.8
2023-05-06T12:43:47.462Z,12.8
2023-05-06T12:44:48.301Z,12.9
2023-05-06T12:45:49.362Z,12.9
2023-05-06T12:46:50.324Z,12.9
2023-05-06T12:47:52.212Z,12.9
2023-05-06T12:48:53.301Z,12.9
2023-05-06T12:49:54.340Z,13
2023-05-06T12:50:55.286Z,13.1
2023-05-06T12:51:56.252Z,13.1
2023-05-06T12:52:57.341Z,13.1
2023-05-06T12:53:58.682Z,13.1
2023-05-06T12:55:01.957Z,13.2
2023-05-06T12:56:24.356Z,13.2
2023-05-06T12:57:25.371Z,13.2
2023-05-06T12:58:27.353Z,13.1
2023-05-06T12:59:28.349Z,12.9
2023-05-06T13:00:29.853Z,12.8
2023-05-06T13:01:31.463Z,12.8
2023-05-06T13:02:32.347Z,12.9
2023-05-06T13:03:33.520Z,12.9
2023-05-06T13:04:34.242Z,12.8
2023-05-06T13:05:35.399Z,12.8
2023-05-06T13:06:36.276Z,12.7
2023-05-06T13:07:37.337Z,12.7
2023-05-06T13:08:46.291Z,12.7
2023-05-06T13:09:55.416Z,12.7
2023-05-06T13:11:02.308Z,12.5
2023-05-06T13:12:03.319Z,12.3
2023-05-06T13:13:04.401Z,12.3
2023-05-06T13:14:05.304Z,12.4
2023-05-06T13:15:06.331Z,12.4
2023-05-06T13:16:07.467Z,12.6
2023-05-06T13:17:09.558Z,12.6
2023-05-06T13:18:10.307Z,12.7
2023-05-06T13:19:25.111Z,12.8
2023-05-06T13:20:15.270Z,12.9
2023-05-06T13:21:16.301Z,12.9
2023-05-06T13:22:17.378Z,12.9
2023-05-06T13:23:18.324Z,12.9
2023-05-06T13:24:19.340Z,12.9
2023-05-06T13:25:20.507Z,13
2023-05-06T13:26:21.424Z,13
2023-05-06T13:27:22.391Z,13.1
2023-05-06T13:28:23.397Z,13.1
2023-05-06T13:29:24.340Z,13.1
2023-05-06T13:30:25.339Z,13.1
2023-05-06T13:31:26.511Z,13.2
2023-05-06T13:32:27.400Z,13.2
2023-05-06T13:33:28.304Z,13.3
2023-05-06T13:34:29.336Z,13.3
2023-05-06T13:35:30.299Z,13.4
2023-05-06T13:36:31.420Z,13.4
2023-05-06T13:37:32.270Z,13.4
2023-05-06T13:38:33.320Z,13.4
2023-05-06T13:39:34.299Z,13.4
2023-05-06T13:40:35.424Z,13.5
2023-05-06T13:41:36.342Z,13.5